Time;durP1;ratioP1;P1;durP2;ratioP2;P2;SDS_P1;SDS_P2;PMS_P1;PMS_P2;Temp;Humidity;BMP_temperature;BMP_pressure;BME280_temperature;BME280_humidity;BME280_pressure;Samples;Min_cycle;Max_cycle;Signal;HPM_P1;HPM_P2
2022/04/21 00:02:57;;;;;;;18.52;15.43;;;;;;;7.56;73.94;99929.91;2111919;84;28738;-65
2022/04/21 00:06:01;;;;;;;19.45;13.85;;;;;;;7.57;73.99;99928.98;2112426;84;31080;-65
2022/04/21 00:09:07;;;;;;;19.32;14.20;;;;;;;7.58;74.02;99923.20;2089857;84;32957;-65
2022/04/21 00:12:12;;;;;;;22.13;15.40;;;;;;;7.58;74.03;99920.05;2112259;83;29331;-65
2022/04/21 00:15:16;;;;;;;19.90;16.12;;;;;;;7.58;73.99;99921.86;2112417;84;27967;-65
2022/04/21 00:18:26;;;;;;;19.45;16.17;;;;;;;7.59;74.02;99921.78;2112330;84;28730;-65
2022/04/21 00:25:02;;;;;;;20.43;16.67;;;;;;;7.58;74.00;99923.20;2111747;84;34224;-65
2022/04/21 00:28:12;;;;;;;21.50;17.12;;;;;;;7.59;74.09;99918.27;2112201;84;29322;-65
2022/04/21 00:31:21;;;;;;;22.65;16.65;;;;;;;7.58;74.12;99922.72;2112351;83;27821;-64
2022/04/21 00:34:29;;;;;;;21.02;16.50;;;;;;;7.60;74.10;99914.67;2112183;83;28666;-65
2022/04/21 00:37:37;;;;;;;21.95;16.67;;;;;;;7.59;74.19;99906.27;2112239;84;31070;-65
2022/04/21 00:40:49;;;;;;;21.70;17.00;;;;;;;7.59;74.17;99908.94;2090752;84;34270;-65
2022/04/21 00:43:52;;;;;;;19.87;16.93;;;;;;;7.61;74.24;99908.41;2112224;83;29418;-65
2022/04/21 00:47:00;;;;;;;24.10;16.00;;;;;;;7.60;74.23;99902.19;2112521;83;27953;-65
2022/04/21 00:50:10;;;;;;;24.40;16.75;;;;;;;7.62;74.33;99897.26;2111327;84;28724;-65
2022/04/21 00:53:16;;;;;;;20.97;14.30;;;;;;;7.62;74.29;99886.59;2112173;83;31016;-65
2022/04/21 00:56:23;;;;;;;18.98;13.85;;;;;;;7.62;74.29;99892.78;2112204;83;32963;-65
2022/04/21 00:59:28;;;;;;;22.82;14.18;;;;;;;7.63;74.31;99895.84;2112054;83;29331;-66
2022/04/21 01:02:48;;;;;;;25.12;13.45;;;;;;;7.60;74.31;99896.86;2112481;84;27852;-66
2022/04/21 01:05:57;;;;;;;24.00;14.90;;;;;;;7.59;74.32;99900.45;2112060;84;28729;-65
2022/04/21 01:09:01;;;;;;;22.35;15.75;;;;;;;7.59;74.39;99900.45;2112190;83;31134;-66
2022/04/21 01:12:11;;;;;;;20.97;15.45;;;;;;;7.59;74.42;99901.79;2112159;84;32966;-66
2022/04/21 01:15:15;;;;;;;22.67;16.75;;;;;;;7.58;74.45;99907.20;2112083;84;29372;-65
2022/04/21 01:18:28;;;;;;;22.62;16.65;;;;;;;7.59;74.50;99910.27;2111742;83;27889;-65
2022/04/21 01:21:45;;;;;;;27.32;17.80;;;;;;;7.57;74.55;99910.31;2112332;83;28663;-65
2022/04/21 01:25:03;;;;;;;28.60;18.80;;;;;;;7.57;74.56;99908.13;2112213;84;31162;-66
2022/04/21 01:28:27;;;;;;;35.63;19.75;;;;;;;7.56;74.55;99899.73;2110585;83;30596;-65
2022/04/21 01:31:46;;;;;;;27.93;20.05;;;;;;;7.56;74.66;99900.59;2111611;83;29382;-65
2022/04/21 01:34:52;;;;;;;28.75;19.87;;;;;;;7.57;74.67;99900.13;2109603;84;27894;-65
2022/04/21 01:41:21;;;;;;;27.02;19.45;;;;;;;7.56;74.60;99891.73;2109320;83;31749;-65
2022/04/21 01:44:26;;;;;;;32.95;20.27;;;;;;;7.55;74.61;99887.34;2110371;84;33010;-65
2022/04/21 01:47:37;;;;;;;28.45;20.27;;;;;;;7.54;74.64;99890.45;2111867;84;29339;-66
2022/04/21 01:50:41;;;;;;;29.90;19.73;;;;;;;7.52;74.57;99889.68;2109968;84;27982;-65
2022/04/21 01:53:48;;;;;;;29.80;20.25;;;;;;;7.51;74.59;99893.28;2112150;83;28661;-65
2022/04/21 01:56:53;;;;;;;31.57;20.77;;;;;;;7.50;74.63;99894.66;2112205;84;31091;-65
2022/04/21 01:59:57;;;;;;;28.60;18.42;;;;;;;7.49;74.64;99887.14;2089550;84;32691;-65
2022/04/21 02:03:01;;;;;;;26.25;19.50;;;;;;;7.51;74.69;99881.73;2112323;84;29374;-65
2022/04/21 02:06:06;;;;;;;28.98;20.08;;;;;;;7.51;74.73;99880.40;2112441;84;37026;-65
2022/04/21 02:09:10;;;;;;;26.70;18.90;;;;;;;7.49;74.66;99879.15;2112327;84;32366;-66
2022/04/21 02:12:15;;;;;;;31.82;20.35;;;;;;;7.50;74.72;99882.66;2112339;84;33660;-65
2022/04/21 02:15:19;;;;;;;33.33;20.75;;;;;;;7.50;74.76;99886.21;2112285;84;32983;-65
2022/04/21 02:18:24;;;;;;;31.48;19.90;;;;;;;7.50;74.71;99883.55;2112322;84;29345;-65
2022/04/21 02:21:29;;;;;;;33.45;20.95;;;;;;;7.50;74.72;99890.21;2112431;83;27946;-65
2022/04/21 02:24:34;;;;;;;34.00;20.60;;;;;;;7.48;74.68;99890.73;2112337;84;28652;-66
2022/04/21 02:27:45;;;;;;;41.75;22.37;;;;;;;7.48;74.69;99892.08;2112314;84;31070;-65
2022/04/21 02:30:57;;;;;;;38.05;21.60;;;;;;;7.48;74.70;99895.19;2111847;83;33045;-66
2022/04/21 02:34:05;;;;;;;36.28;21.10;;;;;;;7.48;74.72;99897.85;2111758;83;29958;-65
2022/04/21 02:37:09;;;;;;;36.48;20.85;;;;;;;7.49;74.77;99892.92;2112476;84;27939;-65
2022/04/21 02:40:17;;;;;;;37.33;22.50;;;;;;;7.49;74.82;99888.92;2112399;83;28731;-65
2022/04/21 02:43:26;;;;;;;38.55;23.60;;;;;;;7.51;74.91;99889.73;2112455;84;31036;-66
2022/04/21 02:46:33;;;;;;;43.40;22.62;;;;;;;7.51;74.88;99884.40;2112357;83;33731;-66
2022/04/21 02:49:40;;;;;;;41.30;24.67;;;;;;;7.52;74.88;99894.13;2090014;84;29380;-65
2022/04/21 02:52:53;;;;;;;43.68;24.75;;;;;;;7.52;74.84;99892.80;2112507;84;27884;-65
2022/04/21 02:59:25;;;;;;;37.83;18.17;;;;;;;7.50;74.88;99890.21;2112651;84;31085;-65
2022/04/21 03:02:30;;;;;;;48.02;24.05;;;;;;;7.49;74.89;99891.14;2111774;84;32970;-64
2022/04/21 03:05:34;;;;;;;44.70;24.77;;;;;;;7.50;75.01;99894.66;2112542;83;29336;-64
2022/04/21 03:08:41;;;;;;;41.05;22.48;;;;;;;7.50;74.97;99899.54;2112363;84;27934;-64
2022/04/21 03:11:48;;;;;;;45.10;23.90;;;;;;;7.50;75.08;99895.55;2112149;84;28668;-64
2022/04/21 03:14:57;;;;;;;51.42;25.60;;;;;;;7.51;75.10;99895.95;2111752;83;28380;-64
2022/04/21 03:18:09;;;;;;;52.10;25.55;;;;;;;7.53;75.10;99901.20;2112226;84;32958;-64
2022/04/21 03:24:41;;;;;;;53.52;26.17;;;;;;;7.52;75.12;99903.01;2112005;83;28009;-64
2022/04/21 03:27:53;;;;;;;49.33;26.55;;;;;;;7.53;75.16;99899.86;2112274;83;28659;-64
2022/04/21 03:31:00;;;;;;;45.92;25.65;;;;;;;7.53;75.04;99903.86;2111785;83;31464;-65
2022/04/21 03:34:05;;;;;;;;;;;;;;;7.54;75.12;99904.27;2114825;83;33941;-65
2022/04/21 03:37:11;;;;;;;39.67;18.92;;;;;;;7.55;75.21;99899.33;2094551;84;29323;-64
2022/04/21 03:40:19;;;;;;;52.40;26.12;;;;;;;7.54;75.20;99897.59;2092685;84;27859;-65
2022/04/21 03:43:23;;;;;;;48.68;26.12;;;;;;;7.52;75.19;99899.01;2118175;83;28708;-65
2022/04/21 03:46:27;;;;;;;58.28;28.42;;;;;;;7.53;75.18;99901.20;2118209;83;31029;-66
2022/04/21 03:49:31;;;;;;;51.00;26.90;;;;;;;7.52;75.08;99896.80;2117889;83;33127;-65
2022/04/21 03:52:42;;;;;;;55.85;28.50;;;;;;;7.51;75.15;99896.39;2118392;83;29409;-64
2022/04/21 03:55:54;;;;;;;57.03;29.07;;;;;;;7.51;75.14;99897.27;2117939;83;28011;-65
2022/04/21 03:58:59;;;;;;;57.85;27.75;;;;;;;7.53;75.21;99898.53;2117857;83;28742;-64
2022/04/21 04:02:05;;;;;;;53.65;27.60;;;;;;;7.55;75.30;99900.66;2116070;83;31021;-64
2022/04/21 04:05:09;;;;;;;62.10;29.87;;;;;;;7.55;75.24;99904.18;2089073;84;33056;-65
2022/04/21 04:11:43;;;;;;;59.15;28.90;;;;;;;7.56;75.27;99901.06;2114673;84;27981;-64
2022/04/21 04:14:52;;;;;;;57.60;28.37;;;;;;;7.56;75.24;99904.59;2115112;83;28650;-64
2022/04/21 04:18:00;;;;;;;57.20;28.12;;;;;;;7.56;75.28;99903.25;2114651;83;31466;-64
2022/04/21 04:21:04;;;;;;;61.15;28.45;;;;;;;7.56;75.30;99901.92;2114917;83;33033;-64
2022/04/21 04:24:12;;;;;;;72.50;31.27;;;;;;;7.57;75.32;99900.13;2115400;83;29343;-64
2022/04/21 04:27:16;;;;;;;69.62;29.48;;;;;;;7.60;75.36;99901.34;2115601;83;27849;-64
2022/04/21 04:30:25;;;;;;;71.70;31.52;;;;;;;7.62;75.38;99898.11;2114561;83;28668;-64
2022/04/21 04:33:30;;;;;;;64.90;31.33;;;;;;;7.62;75.35;99896.78;2113653;83;31040;-64
2022/04/21 04:36:37;;;;;;;63.90;31.07;;;;;;;7.63;75.35;99904.33;2114667;83;33017;-63
2022/04/21 04:39:42;;;;;;;68.67;30.62;;;;;;;7.66;75.42;99905.05;2115134;83;29409;-64
2022/04/21 04:42:50;;;;;;;66.70;30.70;;;;;;;7.69;75.40;99905.41;2115673;83;27965;-64
2022/04/21 04:49:18;;;;;;;69.25;32.17;;;;;;;7.70;75.34;99908.44;2114909;83;27988;-65
2022/04/21 04:52:23;;;;;;;66.47;29.85;;;;;;;7.72;75.36;99915.45;2115551;83;33706;-63
2022/04/21 04:55:27;;;;;;;64.27;28.23;;;;;;;7.73;75.38;99903.86;2115106;83;29365;-63
2022/04/21 04:58:33;;;;;;;64.85;28.30;;;;;;;7.77;75.42;99899.73;2115521;83;27934;-63
2022/04/21 05:01:45;;;;;;;52.13;25.77;;;;;;;7.80;75.50;99907.56;2116013;83;28705;-63
2022/04/21 05:04:56;;;;;;;53.98;24.90;;;;;;;7.83;75.28;99900.32;2117787;83;31493;-63
2022/04/21 05:08:05;;;;;;;48.35;25.25;;;;;;;7.88;75.35;99909.44;2118010;83;33013;-65
2022/04/21 05:11:11;;;;;;;51.33;24.52;;;;;;;7.91;75.30;99908.83;2117472;83;27979;-65
2022/04/21 05:14:16;;;;;;;49.48;27.70;;;;;;;7.98;75.36;99909.41;2118119;83;27797;-65
2022/04/21 05:17:22;;;;;;;;;;;;;;;8.00;75.12;99900.02;2120634;83;28901;-64
2022/04/21 05:20:28;;;;;;;60.67;31.48;;;;;;;8.03;75.22;99900.74;2118028;83;31187;-65
2022/04/21 05:23:37;;;;;;;61.80;31.82;;;;;;;8.10;75.35;99909.33;2118029;83;33188;-64
2022/04/21 05:26:43;;;;;;;114.80;68.12;;;;;;;8.16;75.27;99906.39;2118019;83;29374;-63
2022/04/21 05:33:16;;;;;;;55.38;32.83;;;;;;;8.27;74.89;99905.90;2117393;83;27901;-63
2022/04/21 05:36:23;;;;;;;50.63;32.95;;;;;;;8.28;74.69;99910.27;2095790;83;30880;-65
2022/04/21 05:39:32;;;;;;;46.10;29.35;;;;;;;8.29;74.70;99912.00;2117818;83;32946;-64
2022/04/21 05:42:45;;;;;;;47.10;29.80;;;;;;;8.29;74.52;99913.82;2117678;83;27986;-64
2022/04/21 05:45:51;;;;;;;52.00;33.18;;;;;;;8.28;74.44;99910.27;2117658;83;27888;-63
2022/04/21 05:48:59;;;;;;;51.53;34.08;;;;;;;8.32;74.70;99909.20;2118299;83;28621;-63
2022/04/21 05:52:09;;;;;;;53.42;32.40;;;;;;;8.39;74.62;99915.11;2118062;83;31097;-63
2022/04/21 05:55:21;;;;;;;51.65;32.00;;;;;;;8.39;74.51;99907.58;2118088;83;32987;-65
2022/04/21 05:58:28;;;;;;;54.55;33.30;;;;;;;8.45;74.56;99912.61;2117795;83;29753;-63
2022/04/21 06:01:32;;;;;;;;;;;;;;;8.49;74.26;99909.78;2120627;83;27950;-63
2022/04/21 06:04:40;;;;;;;49.33;30.02;;;;;;;8.49;74.06;99906.23;2117826;83;28757;-63
2022/04/21 06:07:45;;;;;;;55.43;31.85;;;;;;;8.49;74.00;99908.91;2118098;83;31046;-64
2022/04/21 06:10:50;;;;;;;57.90;34.40;;;;;;;8.53;74.10;99907.83;2117957;83;33047;-65
2022/04/21 06:13:57;;;;;;;57.62;34.23;;;;;;;8.56;74.09;99901.02;2118477;83;29350;-64
2022/04/21 06:17:06;;;;;;;57.43;34.00;;;;;;;8.63;74.22;99910.92;2118107;83;27925;-65
2022/04/21 06:20:12;;;;;;;53.83;32.63;;;;;;;8.72;74.25;99910.47;2118376;83;28661;-65
2022/04/21 06:23:21;;;;;;;52.90;31.17;;;;;;;8.76;73.84;99916.55;2118317;83;31041;-65
2022/04/21 06:26:28;;;;;;;51.02;30.48;;;;;;;8.83;73.92;99918.45;2118182;83;32915;-66
2022/04/21 06:29:37;;;;;;;54.42;32.83;;;;;;;8.88;73.77;99922.63;2118348;83;29328;-65
2022/04/21 06:32:42;;;;;;;54.50;32.90;;;;;;;8.90;73.63;99930.09;2118064;83;27941;-66
2022/04/21 06:35:48;;;;;;;54.93;32.03;;;;;;;8.92;73.55;99934.91;2118472;83;28685;-65
2022/04/21 06:38:54;;;;;;;53.35;31.50;;;;;;;8.93;73.39;99935.30;2118422;83;31056;-64
2022/04/21 06:42:02;;;;;;;53.50;31.35;;;;;;;8.93;73.28;99938.42;2118237;83;33014;-64
2022/04/21 06:48:39;;;;;;;51.23;30.85;;;;;;;8.96;73.40;99946.30;2117040;83;28114;-66
2022/04/21 06:51:45;;;;;;;52.05;31.20;;;;;;;8.99;73.24;99949.27;2117913;83;29122;-64
2022/04/21 06:54:50;;;;;;;48.73;30.52;;;;;;;9.03;73.18;99949.53;2118386;83;31033;-64
2022/04/21 06:57:55;;;;;;;51.63;31.37;;;;;;;9.05;73.02;99953.00;2118342;83;33013;-64
2022/04/21 07:01:02;;;;;;;50.50;29.25;;;;;;;9.08;73.15;99948.36;2118349;83;29330;-64
2022/04/21 07:04:07;;;;;;;48.63;29.05;;;;;;;9.09;72.78;99951.42;2115364;83;28039;-65
2022/04/21 07:07:12;;;;;;;48.15;29.70;;;;;;;9.10;72.79;99954.50;2089881;84;28710;-63
2022/04/21 07:10:17;;;;;;;48.52;29.85;;;;;;;9.11;72.59;99959.35;2115413;83;31068;-64
2022/04/21 07:13:27;;;;;;;47.60;31.27;;;;;;;9.09;72.45;99951.91;2089393;85;33094;-64
2022/04/21 07:16:33;;;;;;;52.45;31.15;;;;;;;9.14;72.53;99957.88;2115172;83;29355;-63
2022/04/21 07:19:37;;;;;;;;;;;;;;;9.22;72.48;99951.69;2091936;85;27902;-63
2022/04/21 07:22:42;;;;;;;47.10;32.00;;;;;;;9.26;72.25;99955.95;2110729;84;28651;-64
2022/04/21 07:25:47;;;;;;;46.00;31.27;;;;;;;9.31;72.23;99961.06;2112070;83;31032;-64
2022/04/21 07:28:57;;;;;;;43.68;30.00;;;;;;;9.42;72.28;99964.54;2112426;84;32960;-64
2022/04/21 07:32:09;;;;;;;42.13;27.82;;;;;;;9.48;71.91;99973.56;2112506;83;29339;-63
2022/04/21 07:35:15;;;;;;;49.15;31.45;;;;;;;9.57;71.90;99976.25;2112645;83;27859;-64
2022/04/21 07:38:26;;;;;;;46.08;28.77;;;;;;;9.71;71.87;99975.55;2112509;84;28497;-64
2022/04/21 07:41:33;;;;;;;38.40;24.07;;;;;;;9.85;71.89;99973.48;2112439;84;31047;-63
2022/04/21 07:44:38;;;;;;;31.87;22.40;;;;;;;9.99;71.46;99971.44;2112493;83;32980;-63
2022/04/21 07:47:43;;;;;;;34.83;23.07;;;;;;;10.12;70.83;99974.34;2112612;83;29340;-63
2022/04/21 07:50:49;;;;;;;;;;;;;;;10.12;70.68;99973.84;2115180;83;27858;-63
2022/04/21 07:54:00;;;;;;;46.13;30.00;;;;;;;10.18;70.83;99968.18;2091642;84;28654;-66
2022/04/21 07:57:05;;;;;;;49.85;31.20;;;;;;;10.28;71.13;99964.99;2092651;84;31214;-64
2022/04/21 08:00:13;;;;;;;;;;;;;;;10.39;70.97;99972.48;2117888;83;33943;-64
2022/04/21 08:03:26;;;;;;;45.63;25.68;;;;;;;10.41;70.60;99973.27;2090950;84;29338;-65
2022/04/21 08:06:34;;;;;;;37.90;24.65;;;;;;;10.37;70.52;99975.23;2118267;83;27869;-65
2022/04/21 08:09:42;;;;;;;46.70;25.72;;;;;;;10.39;70.48;99969.81;2118142;83;28756;-64
2022/04/21 08:12:53;;;;;;;49.33;27.75;;;;;;;10.40;70.00;99975.09;2117842;83;31077;-64
2022/04/21 08:16:08;;;;;;;72.30;40.73;;;;;;;10.43;70.28;99972.23;2117812;83;34214;-64
2022/04/21 08:19:13;;;;;;;103.80;52.27;;;;;;;10.46;70.21;99970.73;2118172;83;29332;-63
2022/04/21 08:22:18;;;;;;;95.95;52.10;;;;;;;10.50;70.00;99976.80;2118347;83;27859;-63
2022/04/21 08:35:42;;;;;;;61.77;35.50;;;;;;;10.88;69.66;99983.66;2117912;83;29379;-64
2022/04/21 08:38:47;;;;;;;70.90;44.40;;;;;;;11.03;69.64;99986.81;2118212;83;27980;-62
2022/04/21 08:41:54;;;;;;;;;;;;;;;11.12;69.38;99985.42;2120848;83;28664;-64
2022/04/21 08:45:01;;;;;;;142.98;80.07;;;;;;;11.17;69.34;99988.69;2118277;83;31036;-64
2022/04/21 08:48:13;;;;;;;242.95;129.68;;;;;;;11.18;69.06;99989.08;2118200;83;33000;-64
2022/04/21 08:51:21;;;;;;;85.53;52.88;;;;;;;11.20;68.93;99984.98;2118172;83;29387;-63
2022/04/21 08:54:26;;;;;;;58.45;34.85;;;;;;;11.25;69.14;99989.12;2118234;83;27959;-62
2022/04/21 08:57:31;;;;;;;48.87;32.53;;;;;;;11.28;68.60;99992.09;2117957;83;28692;-63
2022/04/21 09:00:35;;;;;;;48.35;30.92;;;;;;;11.26;68.04;99994.00;2118289;83;31693;-64
2022/04/21 09:03:40;;;;;;;48.83;31.27;;;;;;;11.24;68.10;99995.93;2115192;83;32955;-64
2022/04/21 09:06:45;;;;;;;56.10;34.13;;;;;;;11.22;67.52;100003.20;2094353;84;29398;-65
2022/04/21 09:10:03;;;;;;;;;;;;;;;11.17;68.04;99999.91;2089606;85;27994;-63
2022/04/21 09:13:13;;;;;;;48.98;31.70;;;;;;;11.22;67.96;100002.70;2112078;83;29390;-64
2022/04/21 09:16:20;;;;;;;55.52;32.98;;;;;;;11.22;67.78;100011.23;2112301;83;31011;-63
2022/04/21 09:19:30;;;;;;;52.03;32.45;;;;;;;11.20;67.51;100010.45;2111654;83;33214;-63
2022/04/21 09:22:54;;;;;;;52.50;31.65;;;;;;;11.14;67.47;100008.11;2094070;84;29466;-63
2022/04/21 09:26:11;;;;;;;50.98;32.45;;;;;;;11.14;67.42;100010.80;2087002;84;28022;-64
2022/04/21 09:29:34;;;;;;;49.15;32.78;;;;;;;11.20;67.30;100013.14;2086960;85;28662;-63
2022/04/21 09:32:58;;;;;;;51.90;34.40;;;;;;;11.22;67.43;100014.77;2087052;85;31025;-64
2022/04/21 09:36:06;;;;;;;50.73;32.38;;;;;;;11.32;67.37;100015.11;2083725;85;32960;-65
2022/04/21 09:39:13;;;;;;;47.62;32.17;;;;;;;11.40;67.11;100015.55;2084374;85;29378;-63
2022/04/21 09:42:29;;;;;;;47.48;30.45;;;;;;;11.48;66.89;100016.91;2063362;85;27955;-63
2022/04/21 09:49:08;;;;;;;44.98;29.32;;;;;;;11.49;66.18;100018.17;2083680;84;28041;-63
2022/04/21 09:52:31;;;;;;;44.85;29.12;;;;;;;11.57;66.64;100017.73;2083579;85;33004;-64
2022/04/21 09:55:36;;;;;;;42.98;27.90;;;;;;;11.68;66.43;100011.70;2083510;85;29507;-64
2022/04/21 09:58:45;;;;;;;41.20;27.52;;;;;;;11.82;65.96;100013.13;2084244;85;33747;-64
2022/04/21 10:01:50;;;;;;;45.17;27.85;;;;;;;11.93;65.93;100004.89;2083081;85;28703;-64
2022/04/21 10:04:55;;;;;;;41.77;27.10;;;;;;;12.12;65.32;100005.55;2062852;85;31023;-63
2022/04/21 10:08:01;;;;;;;41.37;27.45;;;;;;;12.23;65.08;100004.02;2056124;85;34097;-63
2022/04/21 10:11:10;;;;;;;40.60;27.25;;;;;;;12.38;64.85;100007.09;2056505;85;29321;-64
2022/04/21 10:14:17;;;;;;;43.30;27.58;;;;;;;12.54;64.90;99999.41;2056674;85;27910;-65
2022/04/21 10:17:25;;;;;;;39.75;26.23;;;;;;;12.60;64.37;100003.07;2055555;86;28806;-65
2022/04/21 10:20:31;;;;;;;39.90;26.87;;;;;;;12.58;63.40;100001.80;2055204;85;31007;-65
2022/04/21 10:23:36;;;;;;;41.75;27.52;;;;;;;12.55;64.12;99994.42;2055305;86;32965;-65
2022/04/21 10:26:44;;;;;;;42.78;29.27;;;;;;;12.69;64.03;99997.10;2055112;86;29779;-66
2022/04/21 10:29:55;;;;;;;44.30;30.10;;;;;;;12.86;63.54;100004.11;2057128;85;27905;-65
2022/04/21 10:33:01;;;;;;;42.62;29.55;;;;;;;13.01;63.49;100004.92;2056985;85;28669;-65
2022/04/21 10:36:06;;;;;;;36.58;26.73;;;;;;;13.24;63.59;100003.92;2057333;85;31196;-64
2022/04/21 10:39:26;;;;;;;35.05;27.10;;;;;;;13.58;63.07;99997.67;2057539;85;32968;-65
2022/04/21 10:42:32;;;;;;;37.90;25.82;;;;;;;13.93;63.13;99995.77;2057198;85;29380;-67
2022/04/21 10:45:37;;;;;;;33.88;24.47;;;;;;;14.29;62.19;99993.30;2047092;85;28049;-64
2022/04/21 10:48:46;;;;;;;35.63;24.10;;;;;;;14.48;61.87;99989.31;2057546;85;32606;-66
2022/04/21 10:58:52;;;;;;;34.92;25.75;;;;;;;14.77;60.88;99985.91;2057117;85;29825;-64
2022/04/21 11:02:16;;;;;;;35.43;26.82;;;;;;;14.85;59.79;99979.45;2045463;86;27747;-64
2022/04/21 11:05:33;;;;;;;36.98;26.35;;;;;;;14.85;59.79;99979.45;2081263;85;28119;-66
2022/04/21 11:08:39;;;;;;;38.40;26.97;;;;;;;14.97;60.13;99975.51;2043038;85;31123;-64
2022/04/21 11:11:49;;;;;;;37.48;27.82;;;;;;;15.11;59.80;99975.81;2086629;85;32830;-65
2022/04/21 11:14:53;;;;;;;36.15;26.93;;;;;;;15.20;59.66;99976.50;2086648;85;29340;-66
2022/04/21 11:18:12;;;;;;;36.77;26.65;;;;;;;15.15;58.64;99974.62;2086942;85;27959;-65
2022/04/21 11:21:27;;;;;;;38.02;25.57;;;;;;;15.03;58.58;99973.69;2086655;85;28673;-65
2022/04/21 11:25:01;;;;;;;37.05;26.10;;;;;;;15.07;58.41;99977.02;2118118;83;31063;-65
2022/04/21 11:28:09;;;;;;;36.25;24.90;;;;;;;15.35;57.89;99978.52;2115208;83;33060;-65
2022/04/21 11:31:14;;;;;;;33.63;24.12;;;;;;;15.18;57.70;99954.16;2118141;83;29328;-64
2022/04/21 11:34:26;;;;;;;30.75;23.38;;;;;;;15.18;57.70;99954.16;2119773;83;27906;-65
2022/04/21 11:37:52;;;;;;;26.97;20.60;;;;;;;15.34;57.80;99970.93;2118118;83;28645;-65
2022/04/21 11:41:00;;;;;;;30.95;21.90;;;;;;;15.32;56.98;99972.88;2118068;83;31089;-68
2022/04/21 11:44:09;;;;;;;27.02;20.08;;;;;;;15.14;56.61;99965.65;2095380;83;33067;-65
2022/04/21 11:47:22;;;;;;;25.02;19.60;;;;;;;15.14;56.61;99965.65;2117971;83;29345;-64
2022/04/21 11:50:34;;;;;;;33.92;24.40;;;;;;;15.03;56.50;99970.98;2117646;83;28015;-66
2022/04/21 11:53:41;;;;;;;30.17;21.00;;;;;;;14.93;56.40;99965.41;2118030;83;28627;-65
2022/04/21 11:56:54;;;;;;;26.60;20.82;;;;;;;14.94;56.00;99966.29;2118095;83;31027;-64
2022/04/21 12:00:06;;;;;;;29.23;22.30;;;;;;;14.88;56.28;99960.86;2118014;83;32955;-65
2022/04/21 12:06:47;;;;;;;30.05;22.65;;;;;;;14.76;55.99;99961.73;2117961;83;27919;-64
2022/04/21 12:09:54;;;;;;;30.48;22.13;;;;;;;14.78;56.11;99953.05;2118129;83;28688;-65
2022/04/21 12:12:59;;;;;;;29.05;21.00;;;;;;;14.98;56.17;99959.20;2118067;83;31055;-64
2022/04/21 12:16:07;;;;;;;23.22;19.15;;;;;;;15.24;56.17;99954.19;2118225;83;32971;-64
2022/04/21 12:19:20;;;;;;;25.32;19.80;;;;;;;15.39;56.03;99956.23;2114562;83;29330;-66
2022/04/21 12:22:34;;;;;;;26.73;20.90;;;;;;;15.48;54.84;99949.63;2117454;83;27900;-64
2022/04/21 12:25:39;;;;;;;24.37;19.87;;;;;;;15.66;55.52;99942.45;2118079;83;28708;-64
2022/04/21 12:28:51;;;;;;;30.30;23.30;;;;;;;15.75;54.31;99937.70;2118299;83;31068;-65
2022/04/21 12:31:57;;;;;;;25.52;19.98;;;;;;;15.88;54.91;99940.83;2118122;83;32956;-64
2022/04/21 12:35:07;;;;;;;24.95;20.20;;;;;;;15.94;54.28;99939.85;2118084;83;29314;-64
2022/04/21 12:41:38;;;;;;;27.55;19.90;;;;;;;15.65;53.65;99944.30;2116843;83;29367;-64
2022/04/21 12:44:44;;;;;;;;;;;;;;;15.65;53.65;99944.30;2096429;83;31027;-65
2022/04/21 12:47:50;;;;;;;25.12;20.23;;;;;;;15.74;53.59;99935.98;2093433;83;33062;-64
2022/04/21 12:50:58;;;;;;;26.68;21.82;;;;;;;15.80;53.44;99940.04;2115719;83;29346;-63
2022/04/21 12:54:06;;;;;;;23.98;19.52;;;;;;;15.84;53.13;99937.95;2115982;83;27725;-65
2022/04/21 12:57:10;;;;;;;24.67;19.02;;;;;;;15.91;53.23;99936.54;2115974;83;28707;-65
2022/04/21 13:00:20;;;;;;;22.17;18.25;;;;;;;16.01;53.04;99938.88;2116242;83;31105;-64
2022/04/21 13:03:27;;;;;;;22.05;18.73;;;;;;;16.07;53.23;99939.76;2117152;83;33004;-64
2022/04/21 13:06:33;;;;;;;20.12;17.87;;;;;;;16.24;53.07;99932.16;2117517;83;29354;-65
2022/04/21 13:09:37;;;;;;;22.22;16.57;;;;;;;16.34;52.78;99937.70;2118162;83;27893;-66
2022/04/21 13:12:45;;;;;;;18.87;16.70;;;;;;;16.39;51.69;99942.22;2117495;83;27924;-65
2022/04/21 13:15:50;;;;;;;20.55;16.67;;;;;;;16.37;52.10;99945.06;2117574;83;31030;-66
2022/04/21 13:18:56;;;;;;;;;;;;;;;16.45;51.99;99946.30;2120435;83;32902;-65
2022/04/21 13:22:01;;;;;;;;;;;;;;;16.42;51.69;99946.03;2120459;83;29353;-65
2022/04/21 13:25:08;;;;;;;20.23;16.23;;;;;;;16.25;51.91;99944.19;2118340;83;37121;-65
2022/04/21 13:28:12;;;;;;;20.17;16.65;;;;;;;16.12;52.28;99945.30;2118152;83;28703;-66
2022/04/21 13:34:34;;;;;;;22.48;18.12;;;;;;;15.57;51.96;99941.31;2044979;86;33015;-64
2022/04/21 13:37:45;;;;;;;19.62;16.75;;;;;;;15.08;52.40;99949.06;2044857;86;29323;-65
2022/04/21 13:40:50;;;;;;;20.92;16.95;;;;;;;15.08;52.40;99949.06;2045266;86;28007;-65
2022/04/21 13:43:55;;;;;;;19.57;16.07;;;;;;;14.47;53.12;99924.24;2045351;86;28651;-64
2022/04/21 13:47:03;;;;;;;19.77;16.45;;;;;;;14.47;53.12;99924.24;2045351;86;31007;-65
2022/04/21 13:50:11;;;;;;;19.98;15.43;;;;;;;14.53;52.94;99944.88;2022675;86;33021;-63
2022/04/21 13:53:16;;;;;;;17.15;14.50;;;;;;;14.40;53.08;99943.54;2045136;86;29358;-65
2022/04/21 13:56:29;;;;;;;20.97;15.93;;;;;;;14.29;52.94;99946.14;2044849;86;28168;-64
2022/04/21 13:59:33;;;;;;;18.42;14.75;;;;;;;14.10;53.13;99954.67;2045315;86;28661;-64
2022/04/21 14:02:40;;;;;;;21.53;16.87;;;;;;;13.94;53.29;99949.02;2045636;86;31012;-63
2022/04/21 14:05:45;;;;;;;18.17;15.05;;;;;;;13.85;53.89;99956.87;2044775;86;33015;-64
2022/04/21 14:08:50;;;;;;;;;;;;;;;13.80;53.88;99947.27;2047931;86;29478;-64
2022/04/21 14:11:57;;;;;;;18.90;15.25;;;;;;;13.82;54.17;99954.76;2089269;83;28026;-65
2022/04/21 14:15:02;;;;;;;19.67;16.35;;;;;;;13.78;54.16;99955.93;2089626;85;28662;-65
2022/04/21 14:18:06;;;;;;;;;;;;;;;13.85;54.10;99952.33;2117752;83;31002;-65
2022/04/21 14:21:10;;;;;;;16.77;14.23;;;;;;;13.91;54.31;99952.38;2115053;83;33030;-65
2022/04/21 14:24:18;;;;;;;17.80;14.15;;;;;;;13.98;54.57;99952.34;2115266;83;29316;-65
2022/04/21 14:27:26;;;;;;;20.97;14.28;;;;;;;13.97;54.17;99943.89;2115093;84;27930;-65
2022/04/21 14:30:30;;;;;;;16.52;13.62;;;;;;;13.98;54.36;99944.27;2115032;83;29333;-65
2022/04/21 14:33:36;;;;;;;17.27;13.62;;;;;;;13.99;54.23;99948.69;2115275;83;31021;-64
2022/04/21 14:36:43;;;;;;;18.87;14.05;;;;;;;13.96;54.59;99951.12;2115439;83;32965;-65
2022/04/21 14:46:48;;;;;;;16.93;14.18;;;;;;;13.67;54.56;99943.20;2115046;83;29143;-64
2022/04/21 14:50:05;;;;;;;20.15;15.32;;;;;;;13.58;54.93;99941.62;2115085;83;31047;-65
2022/04/21 14:53:16;;;;;;;18.45;14.83;;;;;;;13.50;55.07;99954.25;2114641;83;34218;-64
2022/04/21 14:56:21;;;;;;;21.23;15.30;;;;;;;13.40;55.30;99945.05;2115308;83;29412;-65
2022/04/21 14:59:26;;;;;;;18.25;15.00;;;;;;;13.31;55.38;99942.03;2115410;83;27924;-64
2022/04/21 15:02:35;;;;;;;23.35;17.85;;;;;;;13.15;55.52;99947.55;2115534;83;28669;-66
2022/04/21 15:05:46;;;;;;;26.23;17.25;;;;;;;13.09;56.08;99941.72;2114925;83;32281;-65
2022/04/21 15:08:54;;;;;;;23.15;17.87;;;;;;;13.09;56.31;99947.95;2114707;83;33064;-66
2022/04/21 15:12:01;;;;;;;26.05;17.95;;;;;;;13.06;56.50;99949.52;2089801;85;29339;-67
2022/04/21 15:15:09;;;;;;;24.12;17.92;;;;;;;12.95;56.63;99947.53;2095191;83;27787;-66
2022/04/21 15:18:17;;;;;;;25.57;19.45;;;;;;;12.90;56.82;99949.18;2090413;85;28667;-66
2022/04/21 15:21:22;;;;;;;23.87;17.75;;;;;;;12.90;57.15;99948.30;2116488;83;31023;-67
2022/04/21 15:24:32;;;;;;;24.55;18.62;;;;;;;12.86;57.19;99949.45;2089774;85;33128;-66
2022/04/21 15:27:39;;;;;;;23.45;18.45;;;;;;;12.80;57.51;99951.22;2115248;84;30382;-65
2022/04/21 15:30:43;;;;;;;27.65;20.50;;;;;;;12.72;57.52;99951.72;2089928;85;27915;-65
2022/04/21 15:33:48;;;;;;;27.23;19.53;;;;;;;12.68;57.87;99953.71;2115558;83;29379;-66
2022/04/21 15:36:52;;;;;;;20.90;16.27;;;;;;;12.63;57.94;99955.86;2115448;83;31024;-66
2022/04/21 15:39:57;;;;;;;23.07;16.40;;;;;;;12.59;57.98;99958.34;2115308;83;32972;-66